レゾリュート の空港の天気 - METARとTAF

レゾリュート空港 ( CYRB / YRB ) - カナダ ヌナブト準州レゾリュート
飛行場実況気象(Metar)
観測時間11/30 11:00 CST (11/30 17:00 UTC)
風向・風速東 3m/s
視程10km以上
天気現象細氷
全天の4割程度の雲 雲底高度 760m
気温-32℃
湿度68%
気圧1014.2hPa
METARCYRB 301700Z 10006KT 15SM IC SCT025 M32/M36 A2990 RMK SC3 SLP142
過去の天気等 Google飛行場航空写真 Wunderground天気予報

過去48時間のMETAR

飛行場予報(TAF)
発表時間: 11/30 05:40 CST (11/30 11:40 UTC)
予報対象時間: 30日6時 CST ~ 1日6時 CST
風向・風速東 4m/s
視程10km以上
天気現象細氷
全天の8割程度の雲 雲底高度 610m
30日6時 CST ~ 1日6時 CST に一時的に
視程10km以上
天気現象運行に影響にある天気現象が終了
全天の4割程度の雲 雲底高度 610m
TAF CYRB 301140Z 3012/0112 09008KT 6SM IC BKN020
TEMPO 3012/0112 P6SM NSW SCT020 RMK NXT FCST BY 301800Z